sensor_id;sensor_type;location;lat;lon;timestamp;temperature;humidity
17671;DHT22;8954;48.694;8.940;2023-03-24T07:36:50;12.10;99.90
17671;DHT22;8954;48.694;8.940;2023-03-24T07:39:16;11.90;99.90
17671;DHT22;8954;48.694;8.940;2023-03-24T07:41:41;11.90;99.90
17671;DHT22;8954;48.694;8.940;2023-03-24T07:44:07;11.90;99.90
17671;DHT22;8954;48.694;8.940;2023-03-24T07:46:33;11.90;99.90
17671;DHT22;8954;48.694;8.940;2023-03-24T07:48:59;12.00;99.90
17671;DHT22;8954;48.694;8.940;2023-03-24T07:51:24;12.10;99.90
17671;DHT22;8954;48.694;8.940;2023-03-24T07:53:50;12.20;99.90
17671;DHT22;8954;48.694;8.940;2023-03-24T07:56:16;12.20;99.90
17671;DHT22;8954;48.694;8.940;2023-03-24T07:58:41;12.10;99.90
17671;DHT22;8954;48.694;8.940;2023-03-24T08:01:08;12.20;99.90
17671;DHT22;8954;48.694;8.940;2023-03-24T08:03:35;12.30;99.90
17671;DHT22;8954;48.694;8.940;2023-03-24T08:06:02;12.40;99.90
17671;DHT22;8954;48.694;8.940;2023-03-24T08:08:28;12.40;99.90
17671;DHT22;8954;48.694;8.940;2023-03-24T08:10:53;12.40;99.90
17671;DHT22;8954;48.694;8.940;2023-03-24T08:13:19;12.50;99.90
17671;DHT22;8954;48.694;8.940;2023-03-24T08:15:44;12.70;99.90
17671;DHT22;8954;48.694;8.940;2023-03-24T08:18:10;12.80;99.90
17671;DHT22;8954;48.694;8.940;2023-03-24T08:20:36;13.00;99.90
17671;DHT22;8954;48.694;8.940;2023-03-24T08:23:02;13.10;99.90
17671;DHT22;8954;48.694;8.940;2023-03-24T08:25:29;13.00;99.90
17671;DHT22;8954;48.694;8.940;2023-03-24T08:27:55;12.80;99.90
17671;DHT22;8954;48.694;8.940;2023-03-24T08:30:25;12.80;99.90
17671;DHT22;8954;48.694;8.940;2023-03-24T08:32:56;12.80;99.90
17671;DHT22;8954;48.694;8.940;2023-03-24T08:35:24;12.90;99.90
17671;DHT22;8954;48.694;8.940;2023-03-24T08:37:51;13.00;99.90
17671;DHT22;8954;48.694;8.940;2023-03-24T08:40:19;13.00;99.90
17671;DHT22;8954;48.694;8.940;2023-03-24T08:42:53;12.90;99.90
17671;DHT22;8954;48.694;8.940;2023-03-24T08:45:21;13.10;99.90
17671;DHT22;8954;48.694;8.940;2023-03-24T08:47:48;13.20;99.90
17671;DHT22;8954;48.694;8.940;2023-03-24T08:50:15;13.20;99.90
17671;DHT22;8954;48.694;8.940;2023-03-24T08:52:40;13.10;99.90
17671;DHT22;8954;48.694;8.940;2023-03-24T08:55:06;13.20;99.90
17671;DHT22;8954;48.694;8.940;2023-03-24T08:57:33;13.40;99.90
17671;DHT22;8954;48.694;8.940;2023-03-24T08:59:59;13.50;99.90
17671;DHT22;8954;48.694;8.940;2023-03-24T09:02:24;13.50;99.90
17671;DHT22;8954;48.694;8.940;2023-03-24T09:04:50;13.30;99.90
17671;DHT22;8954;48.694;8.940;2023-03-24T09:07:19;13.20;99.90
17671;DHT22;8954;48.694;8.940;2023-03-24T09:09:45;13.40;99.90
17671;DHT22;8954;48.694;8.940;2023-03-24T09:12:10;13.70;99.90
17671;DHT22;8954;48.694;8.940;2023-03-24T09:14:36;13.70;99.90
17671;DHT22;8954;48.694;8.940;2023-03-24T09:17:01;13.60;99.90
17671;DHT22;8954;48.694;8.940;2023-03-24T09:19:27;13.50;99.90
17671;DHT22;8954;48.694;8.940;2023-03-24T09:21:53;13.70;99.90
17671;DHT22;8954;48.694;8.940;2023-03-24T09:24:18;13.90;99.90
17671;DHT22;8954;48.694;8.940;2023-03-24T09:26:44;13.90;99.90
17671;DHT22;8954;48.694;8.940;2023-03-24T09:29:09;14.00;99.90
17671;DHT22;8954;48.694;8.940;2023-03-24T09:31:35;14.30;99.90
17671;DHT22;8954;48.694;8.940;2023-03-24T09:34:00;15.00;99.90
17671;DHT22;8954;48.694;8.940;2023-03-24T09:36:27;15.80;99.90
17671;DHT22;8954;48.694;8.940;2023-03-24T09:38:53;16.10;99.90
17671;DHT22;8954;48.694;8.940;2023-03-24T09:41:28;16.30;99.90
17671;DHT22;8954;48.694;8.940;2023-03-24T09:44:12;16.20;99.90
17671;DHT22;8954;48.694;8.940;2023-03-24T09:47:12;16.10;99.90
17671;DHT22;8954;48.694;8.940;2023-03-24T09:49:41;16.00;99.90
17671;DHT22;8954;48.694;8.940;2023-03-24T09:52:13;17.10;99.90
17671;DHT22;8954;48.694;8.940;2023-03-24T09:54:53;18.20;99.90
17671;DHT22;8954;48.694;8.940;2023-03-24T09:57:28;19.30;99.90
17671;DHT22;8954;48.694;8.940;2023-03-24T09:59:58;19.90;99.90
17671;DHT22;8954;48.694;8.940;2023-03-24T10:02:27;21.30;99.90
17671;DHT22;8954;48.694;8.940;2023-03-24T10:04:53;21.90;99.90
17671;DHT22;8954;48.694;8.940;2023-03-24T10:07:29;20.60;99.90
17671;DHT22;8954;48.694;8.940;2023-03-24T10:09:57;19.50;99.90
17671;DHT22;8954;48.694;8.940;2023-03-24T10:12:38;18.70;99.90
17671;DHT22;8954;48.694;8.940;2023-03-24T10:15:27;19.00;99.90
17671;DHT22;8954;48.694;8.940;2023-03-24T10:18:09;19.90;99.90
17671;DHT22;8954;48.694;8.940;2023-03-24T10:29:30;19.80;99.90
17671;DHT22;8954;48.694;8.940;2023-03-24T10:32:02;19.60;99.90
17671;DHT22;8954;48.694;8.940;2023-03-24T10:34:30;18.30;99.90
17671;DHT22;8954;48.694;8.940;2023-03-24T10:36:59;18.00;99.90
17671;DHT22;8954;48.694;8.940;2023-03-24T10:39:27;19.00;99.90
17671;DHT22;8954;48.694;8.940;2023-03-24T10:41:53;19.70;99.90
17671;DHT22;8954;48.694;8.940;2023-03-24T10:44:20;19.30;99.90
17671;DHT22;8954;48.694;8.940;2023-03-24T10:46:50;18.90;99.90
17671;DHT22;8954;48.694;8.940;2023-03-24T10:49:18;18.60;99.90
17671;DHT22;8954;48.694;8.940;2023-03-24T10:51:46;18.20;99.90
17671;DHT22;8954;48.694;8.940;2023-03-24T10:54:22;17.90;99.90
17671;DHT22;8954;48.694;8.940;2023-03-24T10:59:34;17.50;99.90
17671;DHT22;8954;48.694;8.940;2023-03-24T11:04:40;17.60;99.90
17671;DHT22;8954;48.694;8.940;2023-03-24T11:07:21;18.90;99.90
17671;DHT22;8954;48.694;8.940;2023-03-24T11:10:00;19.10;99.90
17671;DHT22;8954;48.694;8.940;2023-03-24T11:12:31;19.30;99.90
17671;DHT22;8954;48.694;8.940;2023-03-24T11:15:21;19.00;99.90
17671;DHT22;8954;48.694;8.940;2023-03-24T11:20:44;19.80;99.90
17671;DHT22;8954;48.694;8.940;2023-03-24T11:23:26;19.80;99.90
17671;DHT22;8954;48.694;8.940;2023-03-24T11:26:14;21.00;99.90
17671;DHT22;8954;48.694;8.940;2023-03-24T11:28:49;21.50;99.90
17671;DHT22;8954;48.694;8.940;2023-03-24T11:31:24;21.10;99.90
17671;DHT22;8954;48.694;8.940;2023-03-24T11:39:03;18.30;99.90
17671;DHT22;8954;48.694;8.940;2023-03-24T11:41:28;17.60;99.90
17671;DHT22;8954;48.694;8.940;2023-03-24T11:44:21;17.70;99.90
17671;DHT22;8954;48.694;8.940;2023-03-24T11:46:57;17.50;99.90
17671;DHT22;8954;48.694;8.940;2023-03-24T11:49:30;18.60;99.90
17671;DHT22;8954;48.694;8.940;2023-03-24T11:51:56;19.50;99.90
17671;DHT22;8954;48.694;8.940;2023-03-24T11:54:27;19.60;99.90
17671;DHT22;8954;48.694;8.940;2023-03-24T11:56:58;18.30;99.90
17671;DHT22;8954;48.694;8.940;2023-03-24T11:59:48;17.90;99.90
17671;DHT22;8954;48.694;8.940;2023-03-24T12:11:11;17.70;99.90
17671;DHT22;8954;48.694;8.940;2023-03-24T12:13:41;17.40;99.90
17671;DHT22;8954;48.694;8.940;2023-03-24T12:24:52;18.00;99.90
17671;DHT22;8954;48.694;8.940;2023-03-24T12:27:41;17.60;99.90
17671;DHT22;8954;48.694;8.940;2023-03-24T12:33:14;17.40;99.90
17671;DHT22;8954;48.694;8.940;2023-03-24T12:44:29;18.20;99.90
17671;DHT22;8954;48.694;8.940;2023-03-24T12:47:22;18.50;99.90
17671;DHT22;8954;48.694;8.940;2023-03-24T12:52:48;19.40;99.90
17671;DHT22;8954;48.694;8.940;2023-03-24T12:55:29;19.60;99.90
17671;DHT22;8954;48.694;8.940;2023-03-24T12:58:03;19.10;99.90
17671;DHT22;8954;48.694;8.940;2023-03-24T13:00:35;18.40;99.90
17671;DHT22;8954;48.694;8.940;2023-03-24T13:03:13;18.00;99.90
17671;DHT22;8954;48.694;8.940;2023-03-24T13:05:52;17.80;99.90
17671;DHT22;8954;48.694;8.940;2023-03-24T13:11:03;17.30;99.90
17671;DHT22;8954;48.694;8.940;2023-03-24T13:13:35;16.70;99.90
17671;DHT22;8954;48.694;8.940;2023-03-24T13:18:43;16.00;99.90
17671;DHT22;8954;48.694;8.940;2023-03-24T13:21:17;15.70;99.90
17671;DHT22;8954;48.694;8.940;2023-03-24T13:26:42;15.40;99.90
17671;DHT22;8954;48.694;8.940;2023-03-24T13:37:36;15.40;99.90
17671;DHT22;8954;48.694;8.940;2023-03-24T13:40:14;15.50;99.90
17671;DHT22;8954;48.694;8.940;2023-03-24T13:42:46;15.70;99.90
17671;DHT22;8954;48.694;8.940;2023-03-24T13:45:24;15.60;99.90
17671;DHT22;8954;48.694;8.940;2023-03-24T13:50:59;16.10;99.90
17671;DHT22;8954;48.694;8.940;2023-03-24T13:53:38;16.40;99.90
17671;DHT22;8954;48.694;8.940;2023-03-24T13:56:07;16.70;99.90
17671;DHT22;8954;48.694;8.940;2023-03-24T14:01:18;16.60;99.90
17671;DHT22;8954;48.694;8.940;2023-03-24T14:04:27;16.40;99.90
17671;DHT22;8954;48.694;8.940;2023-03-24T14:06:57;16.20;99.90
17671;DHT22;8954;48.694;8.940;2023-03-24T14:09:24;16.10;99.90
17671;DHT22;8954;48.694;8.940;2023-03-24T14:14:29;15.60;99.90
17671;DHT22;8954;48.694;8.940;2023-03-24T14:17:14;15.30;99.90
17671;DHT22;8954;48.694;8.940;2023-03-24T14:19:44;15.20;99.90
17671;DHT22;8954;48.694;8.940;2023-03-24T14:22:39;15.00;99.90
17671;DHT22;8954;48.694;8.940;2023-03-24T14:27:46;15.00;99.90
17671;DHT22;8954;48.694;8.940;2023-03-24T14:30:25;15.50;99.90
17671;DHT22;8954;48.694;8.940;2023-03-24T14:32:58;15.60;99.90
17671;DHT22;8954;48.694;8.940;2023-03-24T14:38:21;16.30;99.90
17671;DHT22;8954;48.694;8.940;2023-03-24T14:40:55;16.10;99.90
17671;DHT22;8954;48.694;8.940;2023-03-24T14:49:23;15.00;99.90
17671;DHT22;8954;48.694;8.940;2023-03-24T14:52:12;14.90;99.90
17671;DHT22;8954;48.694;8.940;2023-03-24T14:54:44;14.50;99.90
17671;DHT22;8954;48.694;8.940;2023-03-24T14:57:33;14.10;99.90
17671;DHT22;8954;48.694;8.940;2023-03-24T15:03:18;13.20;99.90
17671;DHT22;8954;48.694;8.940;2023-03-24T15:05:47;13.10;99.90
17671;DHT22;8954;48.694;8.940;2023-03-24T15:08:18;13.00;99.90
17671;DHT22;8954;48.694;8.940;2023-03-24T15:10:55;12.90;99.90
17671;DHT22;8954;48.694;8.940;2023-03-24T15:13:32;12.80;99.90
17671;DHT22;8954;48.694;8.940;2023-03-24T15:16:00;12.60;99.90
17671;DHT22;8954;48.694;8.940;2023-03-24T15:18:31;12.40;99.90
17671;DHT22;8954;48.694;8.940;2023-03-24T15:20:57;12.30;99.90
17671;DHT22;8954;48.694;8.940;2023-03-24T15:23:24;12.10;99.90
17671;DHT22;8954;48.694;8.940;2023-03-24T15:25:51;12.00;99.90
17671;DHT22;8954;48.694;8.940;2023-03-24T15:28:23;12.00;99.90
17671;DHT22;8954;48.694;8.940;2023-03-24T15:30:49;11.90;99.90
17671;DHT22;8954;48.694;8.940;2023-03-24T15:33:16;11.80;99.90
17671;DHT22;8954;48.694;8.940;2023-03-24T15:35:42;11.70;99.90
17671;DHT22;8954;48.694;8.940;2023-03-24T15:38:20;11.70;99.90
17671;DHT22;8954;48.694;8.940;2023-03-24T15:41:02;11.60;99.90
17671;DHT22;8954;48.694;8.940;2023-03-24T15:43:29;11.60;99.90
17671;DHT22;8954;48.694;8.940;2023-03-24T15:45:56;11.80;99.90
17671;DHT22;8954;48.694;8.940;2023-03-24T15:48:29;11.70;99.90
17671;DHT22;8954;48.694;8.940;2023-03-24T15:50:57;11.70;99.90
17671;DHT22;8954;48.694;8.940;2023-03-24T15:53:26;11.80;99.90
17671;DHT22;8954;48.694;8.940;2023-03-24T15:56:14;12.00;99.90
17671;DHT22;8954;48.694;8.940;2023-03-24T15:58:51;12.30;99.90
17671;DHT22;8954;48.694;8.940;2023-03-24T16:01:23;12.60;99.90
17671;DHT22;8954;48.694;8.940;2023-03-24T16:03:52;13.00;99.90
17671;DHT22;8954;48.694;8.940;2023-03-24T16:06:48;13.20;99.90
17671;DHT22;8954;48.694;8.940;2023-03-24T16:09:16;13.30;99.90
17671;DHT22;8954;48.694;8.940;2023-03-24T16:11:46;13.30;99.90
17671;DHT22;8954;48.694;8.940;2023-03-24T16:16:47;13.40;99.90
17671;DHT22;8954;48.694;8.940;2023-03-24T16:19:12;13.40;99.90
17671;DHT22;8954;48.694;8.940;2023-03-24T16:21:38;13.30;99.90
17671;DHT22;8954;48.694;8.940;2023-03-24T16:24:04;13.20;99.90
17671;DHT22;8954;48.694;8.940;2023-03-24T16:26:31;12.80;99.90
17671;DHT22;8954;48.694;8.940;2023-03-24T16:31:37;12.40;99.90
17671;DHT22;8954;48.694;8.940;2023-03-24T16:34:03;12.30;99.90
17671;DHT22;8954;48.694;8.940;2023-03-24T16:36:29;12.30;99.90
17671;DHT22;8954;48.694;8.940;2023-03-24T16:38:56;12.30;99.90
17671;DHT22;8954;48.694;8.940;2023-03-24T16:41:22;12.30;99.90
17671;DHT22;8954;48.694;8.940;2023-03-24T16:43:49;12.40;99.90
17671;DHT22;8954;48.694;8.940;2023-03-24T16:46:17;12.40;99.90
17671;DHT22;8954;48.694;8.940;2023-03-24T16:48:48;12.20;99.90
17671;DHT22;8954;48.694;8.940;2023-03-24T16:51:15;12.00;99.90
17671;DHT22;8954;48.694;8.940;2023-03-24T16:53:42;11.90;99.90
17671;DHT22;8954;48.694;8.940;2023-03-24T16:56:09;11.70;99.90
17671;DHT22;8954;48.694;8.940;2023-03-24T16:58:36;11.70;99.90
17671;DHT22;8954;48.694;8.940;2023-03-24T17:01:04;11.50;99.90
17671;DHT22;8954;48.694;8.940;2023-03-24T17:03:38;11.40;99.90
17671;DHT22;8954;48.694;8.940;2023-03-24T17:06:04;11.30;99.90
17671;DHT22;8954;48.694;8.940;2023-03-24T17:08:30;11.30;99.90
17671;DHT22;8954;48.694;8.940;2023-03-24T17:10:57;11.30;99.90
17671;DHT22;8954;48.694;8.940;2023-03-24T17:13:24;11.20;99.90
17671;DHT22;8954;48.694;8.940;2023-03-24T17:15:52;11.10;99.90
17671;DHT22;8954;48.694;8.940;2023-03-24T17:18:18;11.00;99.90
17671;DHT22;8954;48.694;8.940;2023-03-24T17:20:44;11.00;99.90
17671;DHT22;8954;48.694;8.940;2023-03-24T17:23:12;11.00;99.90
17671;DHT22;8954;48.694;8.940;2023-03-24T17:25:38;10.90;99.90
17671;DHT22;8954;48.694;8.940;2023-03-24T17:28:13;10.90;99.90
17671;DHT22;8954;48.694;8.940;2023-03-24T17:30:38;10.80;99.90
17671;DHT22;8954;48.694;8.940;2023-03-24T17:33:04;10.70;99.90
17671;DHT22;8954;48.694;8.940;2023-03-24T17:35:29;10.60;99.90
17671;DHT22;8954;48.694;8.940;2023-03-24T17:37:55;10.50;99.90
17671;DHT22;8954;48.694;8.940;2023-03-24T17:40:21;10.50;99.90
17671;DHT22;8954;48.694;8.940;2023-03-24T17:42:47;10.30;99.90
17671;DHT22;8954;48.694;8.940;2023-03-24T17:45:15;10.20;99.90
17671;DHT22;8954;48.694;8.940;2023-03-24T17:47:41;10.20;99.90
17671;DHT22;8954;48.694;8.940;2023-03-24T17:50:07;10.20;99.90
17671;DHT22;8954;48.694;8.940;2023-03-24T17:52:38;10.10;99.90
17671;DHT22;8954;48.694;8.940;2023-03-24T17:55:05;10.00;99.90
17671;DHT22;8954;48.694;8.940;2023-03-24T17:57:31;9.90;99.90
17671;DHT22;8954;48.694;8.940;2023-03-24T17:59:57;9.80;99.90
17671;DHT22;8954;48.694;8.940;2023-03-24T18:02:23;9.80;99.90
17671;DHT22;8954;48.694;8.940;2023-03-24T18:04:48;9.70;99.90
17671;DHT22;8954;48.694;8.940;2023-03-24T18:07:14;9.80;99.90
17671;DHT22;8954;48.694;8.940;2023-03-24T18:09:40;9.80;99.90
17671;DHT22;8954;48.694;8.940;2023-03-24T18:12:06;9.80;99.90
17671;DHT22;8954;48.694;8.940;2023-03-24T18:14:31;9.90;99.90
17671;DHT22;8954;48.694;8.940;2023-03-24T18:16:57;9.90;99.90
17671;DHT22;8954;48.694;8.940;2023-03-24T18:19:23;9.80;99.90
17671;DHT22;8954;48.694;8.940;2023-03-24T18:21:48;10.00;99.90
17671;DHT22;8954;48.694;8.940;2023-03-24T18:24:14;9.90;99.90
17671;DHT22;8954;48.694;8.940;2023-03-24T18:26:40;9.80;99.90
17671;DHT22;8954;48.694;8.940;2023-03-24T18:29:06;9.70;99.90
17671;DHT22;8954;48.694;8.940;2023-03-24T18:31:32;9.80;99.90
17671;DHT22;8954;48.694;8.940;2023-03-24T18:33:59;9.80;99.90
17671;DHT22;8954;48.694;8.940;2023-03-24T18:36:25;9.70;99.90
17671;DHT22;8954;48.694;8.940;2023-03-24T18:38:58;9.70;99.90
17671;DHT22;8954;48.694;8.940;2023-03-24T18:41:24;9.60;99.90
17671;DHT22;8954;48.694;8.940;2023-03-24T18:43:53;9.50;99.90
17671;DHT22;8954;48.694;8.940;2023-03-24T18:46:19;9.60;99.90
17671;DHT22;8954;48.694;8.940;2023-03-24T18:48:45;9.50;99.90
17671;DHT22;8954;48.694;8.940;2023-03-24T18:51:12;9.40;99.90
17671;DHT22;8954;48.694;8.940;2023-03-24T18:53:39;9.50;99.90
17671;DHT22;8954;48.694;8.940;2023-03-24T18:56:06;9.50;99.90
17671;DHT22;8954;48.694;8.940;2023-03-24T18:58:32;9.40;99.90
17671;DHT22;8954;48.694;8.940;2023-03-24T19:01:01;9.50;99.90
17671;DHT22;8954;48.694;8.940;2023-03-24T19:03:27;9.50;99.90
17671;DHT22;8954;48.694;8.940;2023-03-24T19:05:53;9.50;99.90
17671;DHT22;8954;48.694;8.940;2023-03-24T19:08:21;9.60;99.90
17671;DHT22;8954;48.694;8.940;2023-03-24T19:10:47;9.50;99.90
17671;DHT22;8954;48.694;8.940;2023-03-24T19:13:14;9.50;99.90
17671;DHT22;8954;48.694;8.940;2023-03-24T19:15:44;9.50;99.90
17671;DHT22;8954;48.694;8.940;2023-03-24T19:18:10;9.40;99.90
17671;DHT22;8954;48.694;8.940;2023-03-24T19:20:38;9.40;99.90
17671;DHT22;8954;48.694;8.940;2023-03-24T19:23:04;9.40;99.90
17671;DHT22;8954;48.694;8.940;2023-03-24T19:25:30;9.40;99.90
17671;DHT22;8954;48.694;8.940;2023-03-24T19:27:56;9.30;99.90
17671;DHT22;8954;48.694;8.940;2023-03-24T19:30:22;9.20;99.90
17671;DHT22;8954;48.694;8.940;2023-03-24T19:32:47;9.20;99.90
17671;DHT22;8954;48.694;8.940;2023-03-24T19:35:13;9.30;99.90
17671;DHT22;8954;48.694;8.940;2023-03-24T19:37:39;9.20;99.90
17671;DHT22;8954;48.694;8.940;2023-03-24T19:40:05;9.10;99.90
17671;DHT22;8954;48.694;8.940;2023-03-24T19:42:41;9.00;99.90
17671;DHT22;8954;48.694;8.940;2023-03-24T19:45:14;9.10;99.90
17671;DHT22;8954;48.694;8.940;2023-03-24T19:47:39;9.10;99.90
17671;DHT22;8954;48.694;8.940;2023-03-24T19:50:06;9.10;99.90
17671;DHT22;8954;48.694;8.940;2023-03-24T19:52:32;9.00;99.90
17671;DHT22;8954;48.694;8.940;2023-03-24T19:54:58;8.90;99.90
17671;DHT22;8954;48.694;8.940;2023-03-24T19:57:23;9.10;99.90
17671;DHT22;8954;48.694;8.940;2023-03-24T19:59:49;9.00;99.90
17671;DHT22;8954;48.694;8.940;2023-03-24T20:02:16;8.90;99.90
17671;DHT22;8954;48.694;8.940;2023-03-24T20:04:43;8.80;99.90
17671;DHT22;8954;48.694;8.940;2023-03-24T20:07:09;8.80;99.90
17671;DHT22;8954;48.694;8.940;2023-03-24T20:09:35;8.80;99.90
17671;DHT22;8954;48.694;8.940;2023-03-24T20:12:00;8.80;99.90
17671;DHT22;8954;48.694;8.940;2023-03-24T20:14:26;8.70;99.90
17671;DHT22;8954;48.694;8.940;2023-03-24T20:16:52;8.70;99.90
17671;DHT22;8954;48.694;8.940;2023-03-24T20:19:18;8.70;99.90
17671;DHT22;8954;48.694;8.940;2023-03-24T20:21:43;8.80;99.90
17671;DHT22;8954;48.694;8.940;2023-03-24T20:24:09;8.90;99.90
17671;DHT22;8954;48.694;8.940;2023-03-24T20:26:36;8.80;99.90
17671;DHT22;8954;48.694;8.940;2023-03-24T20:29:02;8.70;99.90
17671;DHT22;8954;48.694;8.940;2023-03-24T20:31:28;8.70;99.90
17671;DHT22;8954;48.694;8.940;2023-03-24T20:33:54;8.70;99.90
17671;DHT22;8954;48.694;8.940;2023-03-24T20:36:19;8.60;99.90
17671;DHT22;8954;48.694;8.940;2023-03-24T20:38:45;8.50;99.90
17671;DHT22;8954;48.694;8.940;2023-03-24T20:41:10;8.50;99.90
17671;DHT22;8954;48.694;8.940;2023-03-24T20:43:36;8.40;99.90
17671;DHT22;8954;48.694;8.940;2023-03-24T20:46:07;8.30;99.90
17671;DHT22;8954;48.694;8.940;2023-03-24T20:48:34;8.10;99.90
17671;DHT22;8954;48.694;8.940;2023-03-24T20:50:59;8.00;99.90
17671;DHT22;8954;48.694;8.940;2023-03-24T20:53:26;8.00;99.90
17671;DHT22;8954;48.694;8.940;2023-03-24T20:55:59;8.00;99.90
17671;DHT22;8954;48.694;8.940;2023-03-24T20:58:26;7.80;99.90
17671;DHT22;8954;48.694;8.940;2023-03-24T21:00:55;7.90;99.90
17671;DHT22;8954;48.694;8.940;2023-03-24T21:03:21;8.00;99.90
17671;DHT22;8954;48.694;8.940;2023-03-24T21:05:47;8.10;99.90
17671;DHT22;8954;48.694;8.940;2023-03-24T21:08:12;8.10;99.90
17671;DHT22;8954;48.694;8.940;2023-03-24T21:10:38;8.00;99.90
17671;DHT22;8954;48.694;8.940;2023-03-24T21:13:04;8.00;99.90
17671;DHT22;8954;48.694;8.940;2023-03-24T21:15:30;8.10;99.90
17671;DHT22;8954;48.694;8.940;2023-03-24T21:17:56;8.10;99.90
17671;DHT22;8954;48.694;8.940;2023-03-24T21:20:22;8.10;99.90
17671;DHT22;8954;48.694;8.940;2023-03-24T21:22:51;8.10;99.90
17671;DHT22;8954;48.694;8.940;2023-03-24T21:25:26;8.20;99.90
17671;DHT22;8954;48.694;8.940;2023-03-24T21:27:52;8.40;99.90
17671;DHT22;8954;48.694;8.940;2023-03-24T21:30:18;8.60;99.90
17671;DHT22;8954;48.694;8.940;2023-03-24T21:32:48;8.80;99.90
17671;DHT22;8954;48.694;8.940;2023-03-24T21:35:15;8.80;99.90
17671;DHT22;8954;48.694;8.940;2023-03-24T21:37:42;8.90;99.90
17671;DHT22;8954;48.694;8.940;2023-03-24T21:42:38;8.90;99.90
17671;DHT22;8954;48.694;8.940;2023-03-24T21:45:19;8.90;99.90
17671;DHT22;8954;48.694;8.940;2023-03-24T21:47:46;8.90;99.90
17671;DHT22;8954;48.694;8.940;2023-03-24T21:50:14;8.80;99.90
17671;DHT22;8954;48.694;8.940;2023-03-24T21:52:45;8.80;99.90
17671;DHT22;8954;48.694;8.940;2023-03-24T21:55:13;8.80;99.90
17671;DHT22;8954;48.694;8.940;2023-03-24T21:57:40;8.80;99.90
17671;DHT22;8954;48.694;8.940;2023-03-24T22:00:08;9.00;99.90
17671;DHT22;8954;48.694;8.940;2023-03-24T22:02:40;8.90;99.90
17671;DHT22;8954;48.694;8.940;2023-03-24T22:05:11;8.90;99.90
17671;DHT22;8954;48.694;8.940;2023-03-24T22:07:39;8.90;99.90
17671;DHT22;8954;48.694;8.940;2023-03-24T22:10:06;8.90;99.90
17671;DHT22;8954;48.694;8.940;2023-03-24T22:12:32;9.00;99.90
17671;DHT22;8954;48.694;8.940;2023-03-24T22:14:58;9.00;99.90
17671;DHT22;8954;48.694;8.940;2023-03-24T22:17:24;8.90;99.90
17671;DHT22;8954;48.694;8.940;2023-03-24T22:19:50;9.00;99.90
17671;DHT22;8954;48.694;8.940;2023-03-24T22:22:16;8.90;99.90
17671;DHT22;8954;48.694;8.940;2023-03-24T22:24:42;8.90;99.90
17671;DHT22;8954;48.694;8.940;2023-03-24T22:27:07;8.90;99.90
17671;DHT22;8954;48.694;8.940;2023-03-24T22:29:33;9.00;99.90
17671;DHT22;8954;48.694;8.940;2023-03-24T22:32:00;9.00;99.90
17671;DHT22;8954;48.694;8.940;2023-03-24T22:34:26;9.00;99.90
17671;DHT22;8954;48.694;8.940;2023-03-24T22:36:52;9.00;99.90
17671;DHT22;8954;48.694;8.940;2023-03-24T22:39:18;9.00;99.90
17671;DHT22;8954;48.694;8.940;2023-03-24T22:41:43;9.10;99.90
17671;DHT22;8954;48.694;8.940;2023-03-24T22:44:10;9.20;99.90
17671;DHT22;8954;48.694;8.940;2023-03-24T22:46:36;9.20;99.90
17671;DHT22;8954;48.694;8.940;2023-03-24T22:49:02;9.20;99.90
17671;DHT22;8954;48.694;8.940;2023-03-24T22:51:28;9.10;99.90
17671;DHT22;8954;48.694;8.940;2023-03-24T22:53:55;9.00;99.90
17671;DHT22;8954;48.694;8.940;2023-03-24T22:56:21;9.00;99.90
